Terminal Aerodrome Forecast
Issued by NWS

Home | Current Version | Previous Version | Graphics & Text | Print | Product List | Glossary On
Versions: 1 2 3 4 5 6 7 8 9 10 11 12 13 14 15 16 17 18 19 20 21 22 23 24 25 26 27 28 29 30 31 32 33
427
FTUS43 KABR 031733
TAFATY
TAF
KATY 031733Z 0318/0418 17015KT P6SM FEW090 OVC110
     FM032000 17015KT P6SM OVC040
     FM041100 25010KT P6SM OVC035
     FM041700 27012KT P6SM BKN100=

USA.gov is the U.S. government's official web portal to all federal, state and local government web resources and services.